Ashland, New Hampshire
Current Conditions -  °F | °C
As of 8:35 AM on Sunday 21 Dec 2014 (Local Time) from K1P1 Reporting Station
Light Snow Light Snow  
Wind Chill: -4°   Ceiling: 3200
Heat Index: -4°   Visibility: 10mi
Dew Point: -4°   Wind: 0mph
Humidity: 97%   Direction: NA
Pressure: 30.34"   Gusts: NA
Location:  43.7°N, 71.63°W
Report Text: K1P1 211335Z AUTO 00000KT 10SM -SN OVC032 M04/M04 A3034 RMK AO2 T10381042
Loading
Personal Weather Stations






























Interactive Weather Map New forecast layout! Learn more

10-Day Weather Forecast

Advertisements
Track Severe Weather on mobile